createdAt,value
2017-10-12T00:00:06.412Z,0.00
2017-10-12T00:01:06.540Z,0.00
2017-10-12T00:02:06.502Z,0.00
2017-10-12T00:03:06.551Z,0.00
2017-10-12T00:04:06.600Z,0.00
2017-10-12T00:05:06.649Z,0.00
2017-10-12T00:06:06.759Z,0.00
2017-10-12T00:07:06.807Z,0.00
2017-10-12T00:08:06.788Z,0.00
2017-10-12T00:09:06.837Z,0.00
2017-10-12T00:10:06.884Z,0.00
2017-10-12T00:11:06.930Z,0.00
2017-10-12T00:12:07.040Z,0.00
2017-10-12T00:13:07.023Z,0.00
2017-10-12T00:14:07.070Z,0.00
2017-10-12T00:15:07.116Z,0.00
2017-10-12T00:16:07.166Z,0.00
2017-10-12T00:17:07.276Z,0.00
2017-10-12T00:18:07.259Z,0.00
2017-10-12T00:19:07.312Z,0.00
2017-10-12T00:20:07.355Z,0.00
2017-10-12T00:21:07.402Z,0.00
2017-10-12T00:22:07.531Z,0.00
2017-10-12T00:23:07.496Z,0.00
2017-10-12T00:24:07.546Z,0.00
2017-10-12T00:25:07.590Z,0.00
2017-10-12T00:26:07.638Z,0.00
2017-10-12T00:27:08.509Z,0.00
2017-10-12T00:28:07.732Z,0.00
2017-10-12T00:29:07.779Z,0.00
2017-10-12T00:30:07.826Z,0.00
2017-10-12T00:31:07.872Z,0.00
2017-10-12T00:32:07.987Z,0.00
2017-10-12T00:33:07.965Z,0.00
2017-10-12T00:34:08.015Z,0.00
2017-10-12T00:35:08.061Z,0.00
2017-10-12T00:36:08.109Z,0.00
2017-10-12T00:37:08.237Z,0.00
2017-10-12T00:38:08.201Z,0.00
2017-10-12T00:39:08.248Z,0.00
2017-10-12T00:40:08.298Z,0.00
2017-10-12T00:41:08.344Z,0.00
2017-10-12T00:42:08.473Z,0.00
2017-10-12T00:43:08.445Z,0.00
2017-10-12T00:44:08.484Z,0.00
2017-10-12T00:45:08.533Z,0.00
2017-10-12T00:46:08.579Z,0.00
2017-10-12T00:47:08.690Z,0.00
2017-10-12T00:48:08.740Z,0.00
2017-10-12T00:49:08.723Z,0.00
2017-10-12T00:50:08.767Z,0.00
2017-10-12T00:51:08.811Z,0.00
2017-10-12T00:52:08.863Z,0.00
2017-10-12T00:53:08.973Z,0.00
2017-10-12T00:54:08.956Z,0.00
2017-10-12T00:55:09.009Z,0.00
2017-10-12T00:56:09.049Z,0.00
2017-10-12T00:57:09.099Z,0.00
2017-10-12T00:58:09.210Z,0.00
2017-10-12T00:59:09.192Z,0.00
2017-10-12T01:00:09.239Z,0.00
2017-10-12T01:01:09.286Z,0.00
2017-10-12T01:02:09.335Z,0.00
2017-10-12T01:03:09.445Z,0.00
2017-10-12T01:04:09.434Z,0.00
2017-10-12T01:05:09.477Z,0.00
2017-10-12T01:06:09.523Z,0.00
2017-10-12T01:07:09.568Z,0.00
2017-10-12T01:08:09.682Z,0.00
2017-10-12T01:09:09.664Z,0.00
2017-10-12T01:10:09.711Z,0.00
2017-10-12T01:11:09.758Z,0.00
2017-10-12T01:12:09.802Z,0.00
2017-10-12T01:13:09.917Z,0.00
2017-10-12T01:14:09.901Z,0.00
2017-10-12T01:15:09.945Z,0.00
2017-10-12T01:16:09.994Z,0.00
2017-10-12T01:17:10.041Z,0.00
2017-10-12T01:18:10.440Z,0.00
2017-10-12T01:19:10.137Z,0.00
2017-10-12T01:20:10.183Z,0.00
2017-10-12T01:21:10.230Z,0.00
2017-10-12T01:22:10.283Z,0.00
2017-10-12T01:23:10.409Z,0.00
2017-10-12T01:24:10.373Z,0.00
2017-10-12T01:25:10.421Z,0.00
2017-10-12T01:26:10.466Z,0.00
2017-10-12T01:27:10.513Z,0.00
2017-10-12T01:28:10.645Z,0.00
2017-10-12T01:29:10.609Z,0.00
2017-10-12T01:30:10.653Z,0.00
2017-10-12T01:31:10.702Z,0.00
2017-10-12T01:32:10.749Z,0.00
2017-10-12T01:33:10.877Z,0.00
2017-10-12T01:34:10.855Z,0.00
2017-10-12T01:35:10.892Z,0.00
2017-10-12T01:36:10.941Z,0.00
2017-10-12T01:37:10.988Z,0.00
2017-10-12T01:38:11.098Z,0.00
2017-10-12T01:39:11.152Z,0.00
2017-10-12T01:40:11.130Z,0.00
2017-10-12T01:41:11.178Z,0.00
2017-10-12T01:42:11.224Z,0.00
2017-10-12T01:43:11.270Z,0.00
2017-10-12T01:44:11.383Z,0.00
2017-10-12T01:45:11.366Z,0.00
2017-10-12T01:46:11.416Z,0.00
2017-10-12T01:47:11.460Z,0.00
2017-10-12T01:48:11.507Z,0.00
2017-10-12T01:49:11.619Z,0.00
2017-10-12T01:50:11.603Z,0.00
2017-10-12T01:51:11.649Z,0.00
2017-10-12T01:52:11.695Z,0.00
2017-10-12T01:53:11.745Z,0.00
2017-10-12T01:54:11.856Z,0.00
2017-10-12T01:55:11.839Z,0.00
2017-10-12T01:56:11.885Z,0.00
2017-10-12T01:57:11.932Z,0.00
2017-10-12T01:58:11.982Z,0.00
2017-10-12T01:59:12.092Z,0.00
2017-10-12T02:00:12.077Z,0.00
2017-10-12T02:01:12.126Z,0.00
2017-10-12T02:02:12.170Z,0.00
2017-10-12T02:03:12.217Z,0.00
2017-10-12T02:04:12.325Z,0.00
2017-10-12T02:05:12.310Z,0.00
2017-10-12T02:06:12.365Z,0.00
2017-10-12T02:07:12.402Z,0.00
2017-10-12T02:08:12.453Z,0.00
2017-10-12T02:09:12.566Z,0.00
2017-10-12T02:10:12.547Z,0.00
2017-10-12T02:11:12.595Z,0.00
2017-10-12T02:12:12.646Z,0.00
2017-10-12T02:13:12.692Z,0.00
2017-10-12T02:14:12.817Z,0.00
2017-10-12T02:15:12.789Z,0.00
2017-10-12T02:16:13.166Z,0.00
2017-10-12T02:17:12.879Z,0.00
2017-10-12T02:18:12.926Z,0.00
2017-10-12T02:19:13.055Z,0.00
2017-10-12T02:20:13.021Z,0.00
2017-10-12T02:21:13.066Z,0.00
2017-10-12T02:22:13.119Z,0.00
2017-10-12T02:23:13.159Z,0.00
2017-10-12T02:24:13.273Z,0.00
2017-10-12T02:25:13.319Z,0.00
2017-10-12T02:26:13.305Z,0.00
2017-10-12T02:27:13.349Z,0.00
2017-10-12T02:28:13.398Z,0.00
2017-10-12T02:29:13.444Z,0.00
2017-10-12T02:30:13.558Z,0.00
2017-10-12T02:31:13.538Z,0.00
2017-10-12T02:32:13.586Z,0.00
2017-10-12T02:33:13.631Z,0.00
2017-10-12T02:34:13.681Z,0.00
2017-10-12T02:35:13.791Z,0.00
2017-10-12T02:36:13.774Z,0.00
2017-10-12T02:37:13.818Z,0.00
2017-10-12T02:38:13.869Z,0.00
2017-10-12T02:39:13.915Z,0.00
2017-10-12T02:40:14.027Z,0.00
2017-10-12T02:41:14.010Z,0.00
2017-10-12T02:42:14.057Z,0.00
2017-10-12T02:43:14.105Z,0.00
2017-10-12T02:44:14.148Z,0.00
2017-10-12T02:45:14.258Z,0.00
2017-10-12T02:46:14.244Z,0.00
2017-10-12T02:47:14.300Z,0.00
2017-10-12T02:48:14.340Z,0.00
2017-10-12T02:49:14.386Z,0.00
2017-10-12T02:50:14.512Z,0.00
2017-10-12T02:51:14.480Z,0.00
2017-10-12T02:52:14.528Z,0.00
2017-10-12T02:53:14.577Z,0.00
2017-10-12T02:54:14.624Z,0.00
2017-10-12T02:55:14.735Z,0.00
2017-10-12T02:56:14.779Z,0.00
2017-10-12T02:57:14.766Z,0.00
2017-10-12T02:58:14.807Z,0.00
2017-10-12T02:59:14.856Z,0.00
2017-10-12T03:00:15.880Z,0.00
2017-10-12T03:01:15.016Z,0.00
2017-10-12T03:02:14.999Z,0.00
2017-10-12T03:03:15.043Z,0.00
2017-10-12T03:04:15.092Z,0.00
2017-10-12T03:05:15.139Z,0.00
2017-10-12T03:06:15.249Z,0.00
2017-10-12T03:07:15.232Z,0.00
2017-10-12T03:08:15.279Z,0.00
2017-10-12T03:09:15.326Z,0.00
2017-10-12T03:10:15.374Z,0.00
2017-10-12T03:11:15.486Z,0.00
2017-10-12T03:12:15.467Z,0.00
2017-10-12T03:13:15.518Z,0.00
2017-10-12T03:14:15.562Z,0.00
2017-10-12T03:15:15.608Z,0.00
2017-10-12T03:16:15.719Z,0.00
2017-10-12T03:17:15.702Z,0.00
2017-10-12T03:18:15.748Z,0.00
2017-10-12T03:19:15.795Z,0.00
2017-10-12T03:20:15.844Z,0.00
2017-10-12T03:21:15.955Z,0.00
2017-10-12T03:22:15.935Z,0.00
2017-10-12T03:23:15.982Z,0.00
2017-10-12T03:24:16.037Z,0.00
2017-10-12T03:25:16.078Z,0.00
2017-10-12T03:26:16.207Z,0.00
2017-10-12T03:27:16.172Z,0.00
2017-10-12T03:28:16.218Z,0.00
2017-10-12T03:29:16.264Z,0.00
2017-10-12T03:30:16.319Z,0.00
2017-10-12T03:31:16.475Z,0.00
2017-10-12T03:32:16.404Z,0.00
2017-10-12T03:33:16.452Z,0.00
2017-10-12T03:34:16.498Z,0.00
2017-10-12T03:35:16.545Z,0.00
2017-10-12T03:36:16.678Z,0.00
2017-10-12T03:37:16.641Z,0.00
2017-10-12T03:38:16.688Z,0.00
2017-10-12T03:39:16.734Z,0.00
2017-10-12T03:40:16.787Z,0.00
2017-10-12T03:41:16.891Z,0.00
2017-10-12T03:42:16.941Z,0.00
2017-10-12T03:43:16.921Z,0.00
2017-10-12T03:44:16.967Z,0.00
2017-10-12T03:45:17.017Z,0.00
2017-10-12T03:46:17.063Z,0.00
2017-10-12T03:47:17.173Z,0.00
2017-10-12T03:48:17.157Z,0.00
2017-10-12T03:49:17.204Z,0.00
2017-10-12T03:50:17.254Z,0.00
2017-10-12T03:51:17.303Z,0.00
2017-10-12T03:52:17.412Z,0.00
2017-10-12T03:53:17.393Z,0.00
2017-10-12T03:54:17.439Z,0.00
2017-10-12T03:55:17.489Z,0.00
2017-10-12T03:56:17.536Z,0.00
2017-10-12T03:57:17.651Z,0.00
2017-10-12T03:58:17.629Z,0.00
2017-10-12T03:59:17.677Z,0.00
2017-10-12T04:00:17.726Z,0.00
2017-10-12T04:01:17.772Z,0.00
2017-10-12T04:02:17.887Z,0.00
2017-10-12T04:03:17.870Z,0.00
2017-10-12T04:04:17.916Z,0.00
2017-10-12T04:05:17.961Z,0.00
2017-10-12T04:06:18.010Z,0.00
2017-10-12T04:07:18.124Z,0.00
2017-10-12T04:08:18.167Z,0.00
2017-10-12T04:09:18.151Z,0.00
2017-10-12T04:10:18.197Z,0.00
2017-10-12T04:11:18.247Z,0.00
2017-10-12T04:12:18.293Z,0.00
2017-10-12T04:13:18.409Z,0.00
2017-10-12T04:14:18.390Z,0.00
2017-10-12T04:15:18.433Z,0.00
2017-10-12T04:16:18.483Z,0.00
2017-10-12T04:17:18.532Z,0.00
2017-10-12T04:18:18.652Z,0.00
2017-10-12T04:19:18.625Z,0.00
2017-10-12T04:20:18.673Z,0.00
2017-10-12T04:21:18.718Z,0.00
2017-10-12T04:22:18.768Z,0.00
2017-10-12T04:23:18.879Z,0.00
2017-10-12T04:24:18.862Z,0.00
2017-10-12T04:25:18.911Z,0.00
2017-10-12T04:26:18.957Z,0.00
2017-10-12T04:27:19.001Z,0.00
2017-10-12T04:28:19.122Z,0.00
2017-10-12T04:29:19.097Z,0.00
2017-10-12T04:30:19.154Z,0.00
2017-10-12T04:31:19.206Z,0.00
2017-10-12T04:32:19.240Z,0.00
2017-10-12T04:33:19.354Z,0.00
2017-10-12T04:34:19.334Z,0.00
2017-10-12T04:35:19.381Z,0.00
2017-10-12T04:36:19.432Z,0.00
2017-10-12T04:37:19.474Z,0.00
2017-10-12T04:38:19.600Z,0.00
2017-10-12T04:39:19.570Z,0.00
2017-10-12T04:40:19.616Z,0.00
2017-10-12T04:41:19.669Z,0.00
2017-10-12T04:42:19.712Z,0.00
2017-10-12T04:43:19.823Z,0.00
2017-10-12T04:44:19.870Z,0.00
2017-10-12T04:45:19.855Z,0.00
2017-10-12T04:46:19.902Z,0.00
2017-10-12T04:47:19.949Z,0.00
2017-10-12T04:48:19.995Z,0.00
2017-10-12T04:49:20.106Z,0.00
2017-10-12T04:50:20.090Z,0.00
2017-10-12T04:51:20.139Z,0.00
2017-10-12T04:52:20.191Z,0.00
2017-10-12T04:53:20.234Z,0.00
2017-10-12T04:54:20.345Z,0.00
2017-10-12T04:55:20.326Z,0.00
2017-10-12T04:56:20.372Z,0.00
2017-10-12T04:57:20.419Z,0.00
2017-10-12T04:58:20.467Z,0.00
2017-10-12T04:59:20.573Z,0.00
2017-10-12T05:00:20.559Z,0.00
2017-10-12T05:01:20.608Z,0.00
2017-10-12T05:02:20.655Z,0.00
2017-10-12T05:03:20.702Z,0.00
2017-10-12T05:04:20.827Z,0.00
2017-10-12T05:05:20.795Z,4.00
2017-10-12T05:06:20.841Z,4.00
2017-10-12T05:07:20.888Z,4.00
2017-10-12T05:08:20.935Z,4.00
2017-10-12T05:09:21.044Z,4.00
2017-10-12T05:10:21.095Z,4.00
2017-10-12T05:11:21.078Z,8.00
2017-10-12T05:12:21.121Z,8.00
2017-10-12T05:13:21.167Z,12.00
2017-10-12T05:14:21.218Z,16.00
2017-10-12T05:15:21.325Z,16.00
2017-10-12T05:16:21.308Z,20.00
2017-10-12T05:17:21.358Z,28.00
2017-10-12T05:18:21.404Z,28.00
2017-10-12T05:19:21.448Z,36.00
2017-10-12T05:20:21.572Z,44.00
2017-10-12T05:21:21.544Z,52.00
2017-10-12T05:22:21.591Z,60.00
2017-10-12T05:23:21.638Z,72.00
2017-10-12T05:24:21.686Z,84.00
2017-10-12T05:25:21.797Z,100.00
2017-10-12T05:26:21.778Z,116.00
2017-10-12T05:27:21.821Z,128.00
2017-10-12T05:28:21.869Z,152.00
2017-10-12T05:29:21.920Z,172.00
2017-10-12T05:30:22.034Z,192.00
2017-10-12T05:31:22.075Z,216.00
2017-10-12T05:32:22.055Z,244.00
2017-10-12T05:33:22.104Z,272.00
2017-10-12T05:34:22.152Z,304.00
2017-10-12T05:35:22.195Z,332.00
2017-10-12T05:36:22.308Z,372.00
2017-10-12T05:37:22.302Z,412.00
2017-10-12T05:38:23.537Z,452.00
2017-10-12T05:39:22.382Z,500.00
2017-10-12T05:40:22.432Z,544.00
2017-10-12T05:41:22.542Z,592.00
2017-10-12T05:42:22.528Z,640.00
2017-10-12T05:43:22.572Z,688.00
2017-10-12T05:44:22.624Z,744.00
2017-10-12T05:45:22.662Z,800.00
2017-10-12T05:46:22.776Z,856.00
2017-10-12T05:47:24.237Z,908.00
2017-10-12T05:48:22.803Z,968.00
2017-10-12T05:49:22.850Z,1028.00
2017-10-12T05:50:22.898Z,1084.00
2017-10-12T05:51:23.007Z,1148.00
2017-10-12T05:52:22.994Z,1208.00
2017-10-12T05:53:23.036Z,1268.00
2017-10-12T05:54:23.083Z,1332.00
2017-10-12T05:55:23.137Z,1400.00
2017-10-12T05:56:23.242Z,1468.00
2017-10-12T05:57:23.222Z,1536.00
2017-10-12T05:58:23.270Z,1600.00
2017-10-12T05:59:23.316Z,1688.00
2017-10-12T06:00:23.362Z,1760.00
2017-10-12T06:01:23.492Z,1844.00
2017-10-12T06:02:23.456Z,1920.00
2017-10-12T06:03:23.502Z,2052.00
2017-10-12T06:04:23.549Z,2184.00
2017-10-12T06:05:23.596Z,2296.00
2017-10-12T06:06:23.709Z,2368.00
2017-10-12T06:07:23.753Z,2564.00
2017-10-12T06:08:23.736Z,3048.00
2017-10-12T06:09:23.791Z,3364.00
2017-10-12T06:10:23.830Z,3704.00
2017-10-12T06:11:23.876Z,4296.00
2017-10-12T06:12:23.988Z,4716.00
2017-10-12T06:13:23.970Z,4848.00
2017-10-12T06:14:24.020Z,4164.00
2017-10-12T06:15:24.068Z,3248.00
2017-10-12T06:16:24.112Z,3256.00
2017-10-12T06:17:24.223Z,3420.00
2017-10-12T06:18:24.206Z,3664.00
2017-10-12T06:19:24.253Z,4068.00
2017-10-12T06:20:24.299Z,4068.00
2017-10-12T06:21:24.346Z,3640.00
2017-10-12T06:22:24.463Z,3436.00
2017-10-12T06:23:24.439Z,3516.00
2017-10-12T06:24:24.489Z,3740.00
2017-10-12T06:25:24.536Z,3980.00
2017-10-12T06:26:24.582Z,4160.00
2017-10-12T06:27:24.693Z,4384.00
2017-10-12T06:28:24.679Z,4632.00
2017-10-12T06:29:24.724Z,4892.00
2017-10-12T06:30:24.777Z,5152.00
2017-10-12T06:31:24.822Z,5480.00
2017-10-12T06:32:24.934Z,5764.00
2017-10-12T06:33:24.912Z,6076.00
2017-10-12T06:34:24.961Z,6376.00
2017-10-12T06:35:25.014Z,6708.00
2017-10-12T06:36:25.055Z,7044.00
2017-10-12T06:37:25.165Z,7336.00
2017-10-12T06:38:25.150Z,7632.00
2017-10-12T06:39:25.197Z,7896.00
2017-10-12T06:40:25.244Z,8172.00
2017-10-12T06:41:25.293Z,8364.00
2017-10-12T06:42:25.414Z,8560.00
2017-10-12T06:43:25.384Z,8732.00
2017-10-12T06:44:25.433Z,8832.00
2017-10-12T06:45:25.479Z,8876.00
2017-10-12T06:46:25.529Z,8900.00
2017-10-12T06:47:25.658Z,9056.00
2017-10-12T06:48:25.622Z,9204.00
2017-10-12T06:49:25.669Z,9464.00
2017-10-12T06:50:25.724Z,9456.00
2017-10-12T06:51:25.765Z,8612.00
2017-10-12T06:52:25.894Z,7940.00
2017-10-12T06:53:25.862Z,8008.00
2017-10-12T06:54:25.908Z,7556.00
2017-10-12T06:55:25.962Z,7232.00
2017-10-12T06:56:26.007Z,7244.00
2017-10-12T06:57:26.114Z,7476.00
2017-10-12T06:58:26.169Z,7104.00
2017-10-12T06:59:26.147Z,7888.00
2017-10-12T07:00:26.194Z,8356.00
2017-10-12T07:01:26.243Z,9340.00
2017-10-12T07:02:26.292Z,11084.00
2017-10-12T07:03:26.402Z,10392.00
2017-10-12T07:04:26.386Z,11060.00
2017-10-12T07:05:26.435Z,11940.00
2017-10-12T07:06:26.488Z,13080.00
2017-10-12T07:07:26.528Z,14332.00
2017-10-12T07:08:26.644Z,14448.00
2017-10-12T07:09:26.627Z,15460.00
2017-10-12T07:10:26.674Z,21824.00
2017-10-12T07:11:26.723Z,22240.00
2017-10-12T07:12:26.779Z,29632.00
2017-10-12T07:13:26.901Z,32032.00
2017-10-12T07:14:26.872Z,34848.00
2017-10-12T07:15:26.914Z,33472.00
2017-10-12T07:16:26.961Z,25888.00
2017-10-12T07:17:27.011Z,33984.00
2017-10-12T07:18:27.126Z,28192.00
2017-10-12T07:19:27.173Z,33760.00
2017-10-12T07:20:27.160Z,15696.00
2017-10-12T07:21:27.206Z,24160.00
2017-10-12T07:22:27.260Z,13996.00
2017-10-12T07:23:27.304Z,18304.00
2017-10-12T07:24:27.426Z,12152.00
2017-10-12T07:25:27.403Z,11504.00
2017-10-12T07:26:27.463Z,11548.00
2017-10-12T07:27:27.499Z,24544.00
2017-10-12T07:28:27.551Z,12624.00
2017-10-12T07:29:27.667Z,23744.00
2017-10-12T07:30:27.652Z,14396.00
2017-10-12T07:31:27.694Z,12752.00
2017-10-12T07:32:27.749Z,12224.00
2017-10-12T07:33:27.795Z,11836.00
2017-10-12T07:34:27.911Z,11984.00
2017-10-12T07:35:27.896Z,13408.00
2017-10-12T07:36:27.946Z,27904.00
2017-10-12T07:37:27.993Z,18208.00
2017-10-12T07:38:28.042Z,14804.00
2017-10-12T07:39:28.155Z,18336.00
2017-10-12T07:40:28.140Z,13780.00
2017-10-12T07:41:28.190Z,15096.00
2017-10-12T07:42:28.239Z,18048.00
2017-10-12T07:43:28.293Z,46336.00
2017-10-12T07:44:28.401Z,36032.00
2017-10-12T07:45:28.390Z,15312.00
2017-10-12T07:46:28.437Z,13460.00
2017-10-12T07:47:28.486Z,41056.00
2017-10-12T07:48:28.535Z,13000.00
2017-10-12T07:49:28.648Z,15676.00
2017-10-12T07:50:28.634Z,15256.00
2017-10-12T07:51:28.683Z,40960.00
2017-10-12T07:52:28.732Z,42464.00
2017-10-12T07:53:28.785Z,22560.00
2017-10-12T07:54:28.900Z,27936.00
2017-10-12T07:55:28.880Z,43552.00
2017-10-12T07:56:28.935Z,52608.00
2017-10-12T07:57:28.982Z,63296.00
2017-10-12T07:58:29.032Z,63136.00
2017-10-12T07:59:29.144Z,55136.00
2017-10-12T08:00:29.199Z,23072.00
2017-10-12T08:01:29.182Z,60544.00
2017-10-12T08:02:29.232Z,25248.00
2017-10-12T08:03:29.281Z,24384.00
2017-10-12T08:04:29.332Z,25920.00
2017-10-12T08:05:29.449Z,28480.00
2017-10-12T08:06:29.439Z,20608.00
2017-10-12T08:07:29.486Z,15468.00
2017-10-12T08:08:29.538Z,16116.00
2017-10-12T08:09:29.587Z,21952.00
2017-10-12T08:10:29.703Z,22208.00
2017-10-12T08:11:29.691Z,24320.00
2017-10-12T08:12:29.742Z,47680.00
2017-10-12T08:13:29.790Z,24384.00
2017-10-12T08:14:29.844Z,23104.00
2017-10-12T08:15:29.955Z,22464.00
2017-10-12T08:16:29.941Z,32960.00
2017-10-12T08:17:29.993Z,38272.00
2017-10-12T08:18:30.045Z,28960.00
2017-10-12T08:19:30.094Z,18048.00
2017-10-12T08:20:30.211Z,17696.00
2017-10-12T08:21:30.200Z,21024.00
2017-10-12T08:22:30.247Z,26304.00
2017-10-12T08:23:30.296Z,52192.00
2017-10-12T08:24:30.351Z,33856.00
2017-10-12T08:25:30.464Z,22240.00
2017-10-12T08:26:30.455Z,16332.00
2017-10-12T08:27:30.499Z,13364.00
2017-10-12T08:28:30.554Z,12780.00
2017-10-12T08:29:30.606Z,12872.00
2017-10-12T08:30:30.868Z,13852.00
2017-10-12T08:31:30.702Z,13280.00
2017-10-12T08:32:30.752Z,14060.00
2017-10-12T08:33:30.806Z,13936.00
2017-10-12T08:34:30.855Z,11552.00
2017-10-12T08:35:30.973Z,10280.00
2017-10-12T08:36:30.957Z,9540.00
2017-10-12T08:37:31.009Z,8196.00
2017-10-12T08:38:31.066Z,7960.00
2017-10-12T08:39:31.111Z,8904.00
2017-10-12T08:40:31.241Z,9692.00
2017-10-12T08:41:31.211Z,8328.00
2017-10-12T08:42:31.269Z,8016.00
2017-10-12T08:43:31.313Z,9456.00
2017-10-12T08:44:31.365Z,10680.00
2017-10-12T08:45:31.494Z,13320.00
2017-10-12T08:46:31.466Z,16508.00
2017-10-12T08:47:31.515Z,14012.00
2017-10-12T08:48:31.570Z,11316.00
2017-10-12T08:49:31.616Z,9780.00
2017-10-12T08:50:31.732Z,9068.00
2017-10-12T08:51:31.781Z,7836.00
2017-10-12T08:52:31.770Z,7140.00
2017-10-12T08:53:31.820Z,7480.00
2017-10-12T08:54:31.871Z,9384.00
2017-10-12T08:55:31.926Z,12204.00
2017-10-12T08:56:32.037Z,15540.00
2017-10-12T08:57:32.025Z,15972.00
2017-10-12T08:58:32.074Z,34208.00
2017-10-12T08:59:32.124Z,14820.00
2017-10-12T09:00:32.175Z,15668.00
2017-10-12T09:01:32.289Z,14692.00
2017-10-12T09:02:32.277Z,14160.00
2017-10-12T09:03:32.323Z,13156.00
2017-10-12T09:04:32.375Z,12624.00
2017-10-12T09:05:32.429Z,12384.00
2017-10-12T09:06:32.562Z,14188.00
2017-10-12T09:07:32.526Z,14452.00
2017-10-12T09:08:32.578Z,12048.00
2017-10-12T09:09:32.632Z,11740.00
2017-10-12T09:10:32.679Z,12176.00
2017-10-12T09:11:32.808Z,12840.00
2017-10-12T09:12:32.786Z,13704.00
2017-10-12T09:13:32.832Z,13372.00
2017-10-12T09:14:32.879Z,14412.00
2017-10-12T09:15:32.928Z,20672.00
2017-10-12T09:16:33.063Z,27424.00
2017-10-12T09:17:33.033Z,57952.00
2017-10-12T09:18:33.079Z,21984.00
2017-10-12T09:19:33.131Z,23104.00
2017-10-12T09:20:33.185Z,29024.00
2017-10-12T09:21:33.312Z,14828.00
2017-10-12T09:22:33.282Z,12408.00
2017-10-12T09:23:33.332Z,16812.00
2017-10-12T09:24:33.384Z,46592.00
2017-10-12T09:25:33.437Z,68128.00
2017-10-12T09:26:33.569Z,22208.00
2017-10-12T09:27:33.536Z,56288.00
2017-10-12T09:28:33.586Z,68736.00
2017-10-12T09:29:33.638Z,26432.00
2017-10-12T09:30:33.693Z,20608.00
2017-10-12T09:31:33.825Z,18752.00
2017-10-12T09:32:33.789Z,16712.00
2017-10-12T09:33:33.843Z,17576.00
2017-10-12T09:34:33.893Z,17680.00
2017-10-12T09:35:33.944Z,18912.00
2017-10-12T09:36:34.066Z,27104.00
2017-10-12T09:37:34.131Z,25792.00
2017-10-12T09:38:34.100Z,18400.00
2017-10-12T09:39:34.150Z,18304.00
2017-10-12T09:40:34.205Z,19264.00
2017-10-12T09:41:34.254Z,20384.00
2017-10-12T09:42:34.370Z,24608.00
2017-10-12T09:43:34.355Z,23552.00
2017-10-12T09:44:34.407Z,28160.00
2017-10-12T09:45:34.460Z,25984.00
2017-10-12T09:46:34.508Z,20096.00
2017-10-12T09:47:34.623Z,18028.00
2017-10-12T09:48:35.431Z,20000.00
2017-10-12T09:49:34.662Z,26912.00
2017-10-12T09:50:34.717Z,62560.00
2017-10-12T09:51:34.768Z,91136.00
2017-10-12T09:52:34.882Z,33664.00
2017-10-12T09:53:34.867Z,22816.00
2017-10-12T09:54:34.919Z,67136.00
2017-10-12T09:55:34.971Z,37664.00
2017-10-12T09:56:35.023Z,18296.00
2017-10-12T09:57:35.138Z,23520.00
2017-10-12T09:58:35.127Z,25344.00
2017-10-12T09:59:35.179Z,26368.00
2017-10-12T10:00:35.228Z,30016.00
2017-10-12T10:01:35.280Z,26560.00
2017-10-12T10:02:35.396Z,28864.00
2017-10-12T10:03:35.388Z,35360.00
2017-10-12T10:04:35.436Z,30560.00
2017-10-12T10:05:35.489Z,36096.00
2017-10-12T10:06:35.540Z,47168.00
2017-10-12T10:07:35.659Z,31424.00
2017-10-12T10:08:35.644Z,30400.00
2017-10-12T10:09:35.697Z,37856.00
2017-10-12T10:10:35.749Z,25152.00
2017-10-12T10:11:35.800Z,19392.00
2017-10-12T10:12:35.917Z,21440.00
2017-10-12T10:13:35.904Z,24064.00
2017-10-12T10:14:35.961Z,28320.00
2017-10-12T10:15:36.008Z,31328.00
2017-10-12T10:16:36.060Z,32288.00
2017-10-12T10:17:36.178Z,33408.00
2017-10-12T10:18:36.164Z,42176.00
2017-10-12T10:19:36.221Z,25280.00
2017-10-12T10:20:36.271Z,23904.00
2017-10-12T10:21:36.323Z,26464.00
2017-10-12T10:22:36.470Z,23584.00
2017-10-12T10:23:36.424Z,21888.00
2017-10-12T10:24:36.483Z,20256.00
2017-10-12T10:25:36.528Z,19168.00
2017-10-12T10:26:36.583Z,19072.00
2017-10-12T10:27:36.700Z,21184.00
2017-10-12T10:28:36.681Z,24608.00
2017-10-12T10:29:36.738Z,26368.00
2017-10-12T10:30:36.788Z,28352.00
2017-10-12T10:31:36.835Z,30848.00
2017-10-12T10:32:36.967Z,32480.00
2017-10-12T10:33:36.939Z,33920.00
2017-10-12T10:34:36.991Z,32896.00
2017-10-12T10:35:37.048Z,36160.00
2017-10-12T10:36:37.102Z,41440.00
2017-10-12T10:37:37.231Z,39968.00
2017-10-12T10:38:37.201Z,33984.00
2017-10-12T10:39:37.247Z,50144.00
2017-10-12T10:40:37.300Z,32096.00
2017-10-12T10:41:37.360Z,31424.00
2017-10-12T10:42:37.467Z,35744.00
2017-10-12T10:43:37.456Z,34816.00
2017-10-12T10:44:37.508Z,34304.00
2017-10-12T10:45:37.560Z,35936.00
2017-10-12T10:46:37.611Z,106048.00
2017-10-12T10:47:37.731Z,36160.00
2017-10-12T10:48:37.713Z,37536.00
2017-10-12T10:49:37.765Z,37888.00
2017-10-12T10:50:37.820Z,65504.00
2017-10-12T10:51:37.869Z,62144.00
2017-10-12T10:52:37.988Z,70336.00
2017-10-12T10:53:38.042Z,72352.00
2017-10-12T10:54:38.029Z,116480.00
2017-10-12T10:55:38.080Z,74464.00
2017-10-12T10:56:38.135Z,109344.00
2017-10-12T10:57:38.268Z,68768.00
2017-10-12T10:58:38.241Z,121184.00
2017-10-12T10:59:38.288Z,98464.00
2017-10-12T11:00:38.344Z,128384.00
2017-10-12T11:01:38.400Z,112160.00
2017-10-12T11:02:38.537Z,107712.00
2017-10-12T11:03:38.506Z,52160.00
2017-10-12T11:04:38.561Z,70080.00
2017-10-12T11:05:38.616Z,46560.00
2017-10-12T11:06:38.670Z,91264.00
2017-10-12T11:07:38.788Z,54624.00
2017-10-12T11:08:38.843Z,40192.00
2017-10-12T11:09:38.834Z,36928.00
2017-10-12T11:10:38.892Z,45952.00
2017-10-12T11:11:38.943Z,76672.00
2017-10-12T11:12:39.001Z,105408.00
2017-10-12T11:13:39.119Z,81888.00
2017-10-12T11:14:39.110Z,55200.00
2017-10-12T11:15:39.165Z,58240.00
2017-10-12T11:16:39.224Z,72224.00
2017-10-12T11:17:39.277Z,86080.00
2017-10-12T11:18:39.394Z,74272.00
2017-10-12T11:19:39.396Z,68576.00
2017-10-12T11:20:39.443Z,73920.00
2017-10-12T11:21:39.498Z,88192.00
2017-10-12T11:22:39.549Z,92640.00
2017-10-12T11:23:39.668Z,108064.00
2017-10-12T11:24:39.658Z,114720.00
2017-10-12T11:25:39.716Z,118592.00
2017-10-12T11:26:39.773Z,116992.00
2017-10-12T11:27:39.825Z,120288.00
2017-10-12T11:28:39.949Z,99040.00
2017-10-12T11:29:39.940Z,94080.00
2017-10-12T11:30:39.995Z,75360.00
2017-10-12T11:31:40.049Z,81472.00
2017-10-12T11:32:40.107Z,82560.00
2017-10-12T11:33:40.227Z,84704.00
2017-10-12T11:34:40.286Z,81568.00
2017-10-12T11:35:40.278Z,79136.00
2017-10-12T11:36:40.332Z,59520.00
2017-10-12T11:37:40.387Z,47392.00
2017-10-12T11:38:40.446Z,45856.00
2017-10-12T11:39:40.569Z,50880.00
2017-10-12T11:40:40.559Z,58624.00
2017-10-12T11:41:40.614Z,54560.00
2017-10-12T11:42:40.671Z,42464.00
2017-10-12T11:43:40.729Z,48544.00
2017-10-12T11:44:40.892Z,53376.00
2017-10-12T11:45:40.852Z,54848.00
2017-10-12T11:46:40.895Z,52128.00
2017-10-12T11:47:40.952Z,46688.00
2017-10-12T11:48:41.007Z,66848.00
2017-10-12T11:49:41.128Z,70112.00
2017-10-12T11:50:41.119Z,118240.00
2017-10-12T11:51:41.173Z,79680.00
2017-10-12T11:52:41.232Z,87808.00
2017-10-12T11:53:41.290Z,52768.00
2017-10-12T11:54:41.410Z,69344.00
2017-10-12T11:55:41.395Z,74528.00
2017-10-12T11:56:41.455Z,79200.00
2017-10-12T11:57:41.510Z,55296.00
2017-10-12T11:58:41.572Z,84032.00
2017-10-12T11:59:41.690Z,58848.00
2017-10-12T12:00:41.679Z,49056.00
2017-10-12T12:01:41.736Z,71904.00
2017-10-12T12:02:41.793Z,86432.00
2017-10-12T12:03:41.848Z,63264.00
2017-10-12T12:04:41.972Z,63744.00
2017-10-12T12:05:41.960Z,60032.00
2017-10-12T12:06:42.018Z,56384.00
2017-10-12T12:07:42.074Z,78592.00
2017-10-12T12:08:42.129Z,85792.00
2017-10-12T12:09:42.266Z,90048.00
2017-10-12T12:10:42.241Z,95456.00
2017-10-12T12:11:42.295Z,100864.00
2017-10-12T12:12:42.353Z,99808.00
2017-10-12T12:13:42.412Z,94240.00
2017-10-12T12:14:42.548Z,83616.00
2017-10-12T12:15:42.521Z,78112.00
2017-10-12T12:16:42.592Z,75776.00
2017-10-12T12:17:42.636Z,81696.00
2017-10-12T12:18:42.694Z,91776.00
2017-10-12T12:19:42.824Z,94496.00
2017-10-12T12:20:42.872Z,94336.00
2017-10-12T12:21:42.869Z,82432.00
2017-10-12T12:22:42.923Z,69312.00
2017-10-12T12:23:42.983Z,38592.00
2017-10-12T12:24:43.041Z,39936.00
2017-10-12T12:25:43.161Z,55360.00